Search for airport 
image banner adimage banner ad
image banner ad

SSOW - Comandante Carmelo Airport

Located in Itaituba, Brazil

ICAO - SSOW, IATA -

Data provided by Airmate  

General information

Coordinates: S27°20'51" W53°24'12"
Elevation is 1843 feet MSL.
Magnetic variation is -16° East
View others Airports in Rio Grande do Sul

Operational data

Open for public use
Current time UTC:
Current local time:
Weather at : SBCH - Chapecó Airport ( 77 km )
METAR: SBCH 011100Z 13012KT 9999 SCT015 21/19 Q1016
View NOTAMs / SUP AIP / TFR affecting this airport [VIEW]
Communications frequencies: [VIEW]

Runways:

RWY identifierQFULength (ft)Width (ft)SurfaceLDA (ft)
14242798DIRT
32242798DIRT

Airport contact information

Address: Itaituba Brazil

Satellite view of SSOW